Terminal Aerodrome Forecast
Issued by NWS Pendleton, OR

Home | Current Version | Previous Version | Text Only | Print | Product List | Glossary On
Versions: 1 2 3 4 5 6 7 8 9 10 11 12 13 14 15 16 17 18 19 20 21 22 23 24 25 26 27 28 29 30 31 32 33 34 35
000
FTUS46 KPDT 292300
TAFPDT
TAF
KPDT 292328Z 3000/3024 VRB03KT P6SM OVC006
     FM300800 VRB03KT 5SM BR OVC005
     FM301300 12003KT 3SM BR SCT001 OVC003
     FM301800 10003KT 5SM BR OVC006
     FM302100 33004KT 6SM BR OVC011=

USA.gov is the U.S. government's official web portal to all federal, state and local government web resources and services.